createdAt,value
2022-10-25T00:01:25.512Z,21.55
2022-10-25T00:03:52.322Z,20.95
2022-10-25T00:06:18.966Z,19.02
2022-10-25T00:08:45.666Z,20.42
2022-10-25T00:11:24.458Z,21.73
2022-10-25T00:13:52.722Z,19.30
2022-10-25T00:16:23.002Z,18.63
2022-10-25T00:18:50.141Z,18.35
2022-10-25T00:21:17.215Z,17.02
2022-10-25T00:23:43.778Z,17.65
2022-10-25T00:26:11.944Z,16.42
2022-10-25T00:28:39.177Z,16.58
2022-10-25T00:31:08.353Z,17.10
2022-10-25T00:33:36.832Z,16.02
2022-10-25T00:36:08.184Z,16.88
2022-10-25T00:38:35.329Z,16.92
2022-10-25T00:41:02.292Z,16.75
2022-10-25T00:43:37.340Z,16.73
2022-10-25T00:46:27.570Z,14.80
2022-10-25T00:49:02.427Z,14.93
2022-10-25T00:51:34.434Z,16.05
2022-10-25T00:54:01.643Z,17.55
2022-10-25T00:56:33.500Z,17.30
2022-10-25T01:01:29.345Z,16.75
2022-10-25T01:03:59.148Z,20.27
2022-10-25T01:06:39.855Z,20.58
2022-10-25T01:09:09.870Z,21.15
2022-10-25T01:11:37.959Z,19.45
2022-10-25T01:14:07.548Z,19.90
2022-10-25T01:16:49.260Z,19.80
2022-10-25T01:19:24.906Z,20.10
2022-10-25T01:21:57.617Z,20.70
2022-10-25T01:24:45.862Z,18.52
2022-10-25T01:27:37.401Z,22.25
2022-10-25T01:30:15.256Z,20.48
2022-10-25T01:32:55.607Z,18.83
2022-10-25T01:35:47.605Z,20.27
2022-10-25T01:38:55.644Z,19.30
2022-10-25T01:41:47.593Z,18.83
2022-10-25T01:44:47.898Z,18.55
2022-10-25T01:47:21.524Z,19.15
2022-10-25T01:49:52.204Z,18.10
2022-10-25T01:52:21.113Z,17.45
2022-10-25T01:54:47.970Z,18.60
2022-10-25T01:57:21.403Z,17.77
2022-10-25T02:00:08.812Z,16.85
2022-10-25T02:02:38.372Z,16.35
2022-10-25T02:05:29.191Z,19.23
2022-10-25T02:08:13.639Z,18.42
2022-10-25T02:10:52.118Z,16.17
2022-10-25T02:13:33.186Z,18.45
2022-10-25T02:16:02.404Z,18.60
2022-10-25T02:18:34.788Z,18.38
2022-10-25T02:21:03.030Z,18.98
2022-10-25T02:23:30.994Z,18.58
2022-10-25T02:25:59.379Z,18.73
2022-10-25T02:28:28.814Z,18.02
2022-10-25T02:30:58.759Z,17.77
2022-10-25T02:33:25.633Z,18.05
2022-10-25T02:36:19.451Z,18.10
2022-10-25T02:38:47.920Z,16.90
2022-10-25T02:41:14.526Z,17.13
2022-10-25T02:43:41.192Z,20.63
2022-10-25T02:46:19.431Z,18.30
2022-10-25T02:48:46.651Z,19.92
2022-10-25T02:51:14.148Z,19.52
2022-10-25T02:53:41.281Z,18.90
2022-10-25T02:56:20.489Z,19.70
2022-10-25T02:58:48.852Z,19.52
2022-10-25T03:01:17.366Z,18.70
2022-10-25T03:03:45.242Z,18.77
2022-10-25T03:06:12.870Z,18.77
2022-10-25T03:08:40.670Z,18.48
2022-10-25T03:11:08.544Z,19.80
2022-10-25T03:13:35.344Z,18.92
2022-10-25T03:16:02.127Z,18.48
2022-10-25T03:18:28.717Z,17.85
2022-10-25T03:20:59.932Z,18.15
2022-10-25T03:23:27.413Z,19.52
2022-10-25T03:25:55.738Z,18.45
2022-10-25T03:28:23.138Z,18.90
2022-10-25T03:30:50.152Z,20.02
2022-10-25T03:33:17.486Z,16.45
2022-10-25T03:35:44.100Z,18.73
2022-10-25T03:38:11.225Z,19.85
2022-10-25T03:40:37.831Z,19.10
2022-10-25T03:43:04.456Z,20.95
2022-10-25T03:45:31.043Z,20.20
2022-10-25T03:47:57.703Z,20.27
2022-10-25T03:50:24.300Z,19.25
2022-10-25T03:52:50.922Z,22.10
2022-10-25T03:55:17.628Z,17.92
2022-10-25T03:57:44.412Z,20.65
2022-10-25T04:00:11.843Z,20.52
2022-10-25T04:02:38.861Z,21.08
2022-10-25T04:05:06.361Z,19.48
2022-10-25T04:07:32.945Z,18.02
2022-10-25T04:09:59.682Z,19.90
2022-10-25T04:12:26.280Z,17.60
2022-10-25T04:14:52.866Z,20.08
2022-10-25T04:17:19.508Z,20.40
2022-10-25T04:19:46.100Z,19.67
2022-10-25T04:22:13.302Z,19.35
2022-10-25T04:24:39.983Z,19.40
2022-10-25T04:27:06.661Z,19.63
2022-10-25T04:29:33.254Z,18.42
2022-10-25T04:32:00.129Z,18.73
2022-10-25T04:34:26.763Z,19.20
2022-10-25T04:36:53.774Z,19.10
2022-10-25T04:39:20.369Z,17.88
2022-10-25T04:41:47.132Z,19.05
2022-10-25T04:44:13.701Z,18.60
2022-10-25T04:46:46.414Z,20.50
2022-10-25T04:49:15.838Z,19.00
2022-10-25T04:51:42.477Z,19.02
2022-10-25T04:54:09.201Z,19.73
2022-10-25T04:56:35.851Z,19.13
2022-10-25T04:59:02.431Z,18.23
2022-10-25T05:01:29.108Z,17.60
2022-10-25T05:03:55.825Z,18.88
2022-10-25T05:06:28.399Z,17.85
2022-10-25T05:08:55.328Z,17.73
2022-10-25T05:11:24.518Z,18.15
2022-10-25T05:13:51.293Z,19.88
2022-10-25T05:16:22.755Z,19.30
2022-10-25T05:18:51.139Z,17.80
2022-10-25T05:21:18.539Z,19.95
2022-10-25T05:23:45.806Z,19.20
2022-10-25T05:26:22.093Z,19.05
2022-10-25T05:28:51.739Z,20.02
2022-10-25T05:31:19.324Z,20.65
2022-10-25T05:33:48.444Z,20.02
2022-10-25T05:36:15.603Z,19.48
2022-10-25T05:38:42.677Z,19.85
2022-10-25T05:41:11.571Z,19.55
2022-10-25T05:43:38.232Z,19.60
2022-10-25T05:46:08.353Z,17.80
2022-10-25T05:48:36.683Z,18.80
2022-10-25T05:51:33.048Z,19.70
2022-10-25T05:54:04.124Z,20.48
2022-10-25T05:56:32.310Z,20.35
2022-10-25T05:59:02.707Z,20.15
2022-10-25T06:01:29.496Z,20.75
2022-10-25T06:03:56.240Z,20.13
2022-10-25T06:06:24.097Z,20.83
2022-10-25T06:08:55.373Z,19.67
2022-10-25T06:11:22.036Z,21.52
2022-10-25T06:13:48.665Z,20.30
2022-10-25T06:16:18.048Z,19.75
2022-10-25T06:18:44.881Z,19.83
2022-10-25T06:21:12.591Z,20.67
2022-10-25T06:23:40.263Z,18.38
2022-10-25T06:26:09.759Z,17.35
2022-10-25T06:28:39.307Z,19.52
2022-10-25T06:31:17.894Z,19.88
2022-10-25T06:33:45.384Z,18.60
2022-10-25T06:36:15.429Z,18.23
2022-10-25T06:38:43.199Z,18.08
2022-10-25T06:41:17.969Z,18.67
2022-10-25T06:43:44.778Z,19.80
2022-10-25T06:46:18.521Z,19.60
2022-10-25T06:48:45.127Z,18.40
2022-10-25T06:51:11.832Z,19.15
2022-10-25T06:53:38.970Z,19.38
2022-10-25T06:56:10.601Z,19.05
2022-10-25T06:58:41.179Z,17.83
2022-10-25T07:01:11.582Z,19.10
2022-10-25T07:03:38.695Z,18.67
2022-10-25T07:06:07.366Z,17.73
2022-10-25T07:08:35.290Z,18.38
2022-10-25T07:11:02.228Z,17.90
2022-10-25T07:13:30.624Z,17.35
2022-10-25T07:16:09.093Z,16.05
2022-10-25T07:18:36.727Z,15.27
2022-10-25T07:21:11.861Z,14.85
2022-10-25T07:23:42.518Z,15.43
2022-10-25T07:26:13.754Z,14.25
2022-10-25T07:28:41.078Z,15.88
2022-10-25T07:31:11.229Z,15.60
2022-10-25T07:33:38.007Z,14.75
2022-10-25T07:36:10.766Z,15.52
2022-10-25T07:38:38.527Z,15.18
2022-10-25T07:41:05.627Z,14.90
2022-10-25T07:43:32.394Z,14.35
2022-10-25T07:45:59.078Z,13.90
2022-10-25T07:48:25.832Z,14.48
2022-10-25T07:50:52.494Z,13.57
2022-10-25T07:53:19.203Z,13.70
2022-10-25T07:55:52.471Z,13.00
2022-10-25T07:58:19.363Z,12.90
2022-10-25T08:00:46.324Z,12.02
2022-10-25T08:03:14.834Z,11.52
2022-10-25T08:05:44.201Z,10.20
2022-10-25T08:08:11.551Z,8.90
2022-10-25T08:10:38.186Z,8.70
2022-10-25T08:13:05.764Z,9.93
2022-10-25T08:15:32.407Z,10.27
2022-10-25T08:18:00.150Z,10.18
2022-10-25T08:20:49.143Z,9.55
2022-10-25T08:23:14.491Z,9.57
2022-10-25T08:25:41.458Z,10.15
2022-10-25T08:28:08.151Z,11.63
2022-10-25T08:30:35.248Z,10.77
2022-10-25T08:33:01.819Z,11.43
2022-10-25T08:35:28.391Z,9.90
2022-10-25T08:37:55.041Z,9.25
2022-10-25T08:40:26.207Z,10.10
2022-10-25T08:43:12.589Z,9.55
2022-10-25T08:45:43.763Z,9.68
2022-10-25T08:48:17.775Z,8.90
2022-10-25T08:50:46.951Z,10.52
2022-10-25T08:53:22.774Z,9.65
2022-10-25T08:56:11.463Z,9.43
2022-10-25T08:58:49.102Z,8.55
2022-10-25T09:01:23.338Z,11.50
2022-10-25T09:03:50.017Z,10.85
2022-10-25T09:06:34.468Z,9.30
2022-10-25T09:09:19.486Z,10.35
2022-10-25T09:11:57.843Z,11.35
2022-10-25T09:15:00.038Z,10.10
2022-10-25T09:20:15.356Z,10.47
2022-10-25T09:23:04.744Z,10.27
2022-10-25T09:25:31.282Z,10.45
2022-10-25T09:28:00.839Z,10.05
2022-10-25T09:30:29.778Z,12.07
2022-10-25T09:33:01.489Z,10.75
2022-10-25T09:38:34.126Z,10.35
2022-10-25T09:41:05.519Z,10.43
2022-10-25T09:43:54.946Z,10.82
2022-10-25T09:46:34.456Z,9.32
2022-10-25T09:49:10.723Z,10.27
2022-10-25T09:52:05.146Z,8.75
2022-10-25T09:54:45.267Z,10.02
2022-10-25T09:57:11.921Z,9.45
2022-10-25T09:59:38.716Z,9.55
2022-10-25T10:02:05.393Z,9.02
2022-10-25T10:04:36.624Z,8.95
2022-10-25T10:07:08.075Z,8.40
2022-10-25T10:09:37.793Z,8.57
2022-10-25T10:12:09.469Z,9.43
2022-10-25T10:14:44.717Z,8.00
2022-10-25T10:17:17.609Z,9.73
2022-10-25T10:19:44.303Z,8.63
2022-10-25T10:22:16.747Z,9.13
2022-10-25T10:24:47.871Z,7.53
2022-10-25T10:27:20.530Z,8.02
2022-10-25T10:30:00.612Z,7.30
2022-10-25T10:32:29.368Z,8.35
2022-10-25T10:34:58.465Z,8.73
2022-10-25T10:37:29.724Z,8.95
2022-10-25T10:40:16.571Z,7.05
2022-10-25T10:42:43.373Z,7.78
2022-10-25T10:45:18.615Z,8.40
2022-10-25T10:47:51.229Z,8.15
2022-10-25T10:50:21.106Z,7.43
2022-10-25T10:52:49.108Z,6.75
2022-10-25T10:55:25.983Z,7.07
2022-10-25T10:57:54.464Z,6.15
2022-10-25T11:00:27.712Z,5.47
2022-10-25T11:05:32.331Z,7.22
2022-10-25T11:08:00.274Z,6.35
2022-10-25T11:10:35.347Z,6.38
2022-10-25T11:13:12.486Z,6.30
2022-10-25T11:16:05.066Z,7.00
2022-10-25T11:18:51.097Z,6.57
2022-10-25T11:21:35.611Z,6.32
2022-10-25T11:24:32.254Z,5.10
2022-10-25T11:27:24.609Z,5.97
2022-10-25T11:30:00.263Z,6.45
2022-10-25T11:35:27.817Z,6.38
2022-10-25T11:38:17.171Z,7.00
2022-10-25T11:40:53.045Z,6.38
2022-10-25T11:43:40.182Z,6.88
2022-10-25T11:46:39.174Z,6.78
2022-10-25T11:49:29.533Z,5.60
2022-10-25T11:52:34.133Z,5.10
2022-10-25T11:55:45.537Z,5.30
2022-10-25T11:59:06.855Z,5.43
2022-10-25T12:02:26.025Z,4.25
2022-10-25T12:05:42.101Z,5.60
2022-10-25T12:08:39.399Z,5.15
2022-10-25T12:11:40.117Z,4.72
2022-10-25T12:14:14.568Z,3.38
2022-10-25T12:16:44.111Z,3.45
2022-10-25T12:19:25.428Z,3.00
2022-10-25T12:22:02.203Z,2.95
2022-10-25T12:24:55.501Z,3.30
2022-10-25T12:27:46.030Z,3.53
2022-10-25T12:30:19.053Z,3.47
2022-10-25T12:33:04.116Z,4.63
2022-10-25T12:35:58.059Z,3.85
2022-10-25T12:38:40.109Z,3.70
2022-10-25T12:41:22.116Z,3.50
2022-10-25T12:44:00.111Z,3.80
2022-10-25T12:46:35.437Z,3.35
2022-10-25T12:49:29.513Z,3.22
2022-10-25T12:52:23.888Z,3.90
2022-10-25T12:55:05.493Z,3.78
2022-10-25T13:03:11.952Z,4.05
2022-10-25T13:06:04.389Z,3.75
2022-10-25T13:08:32.025Z,4.00
2022-10-25T13:11:05.151Z,4.50
2022-10-25T13:13:34.974Z,4.38
2022-10-25T13:16:03.492Z,3.90
2022-10-25T13:18:44.357Z,4.72
2022-10-25T13:21:55.469Z,3.83
2022-10-25T13:24:46.919Z,4.17
2022-10-25T13:27:13.771Z,4.30
2022-10-25T13:30:02.196Z,3.88
2022-10-25T13:32:31.143Z,3.90
2022-10-25T13:35:02.438Z,3.65
2022-10-25T13:37:31.976Z,3.38
2022-10-25T13:40:05.928Z,3.40
2022-10-25T13:42:39.648Z,2.75
2022-10-25T13:45:19.333Z,2.70
2022-10-25T13:47:48.861Z,2.10
2022-10-25T13:50:27.044Z,2.45
2022-10-25T13:53:01.724Z,2.20
2022-10-25T13:55:37.774Z,3.17
2022-10-25T13:58:31.657Z,2.80
2022-10-25T14:01:39.009Z,3.20
2022-10-25T14:04:20.935Z,2.90
2022-10-25T14:06:47.695Z,3.20
2022-10-25T14:09:37.424Z,2.70
2022-10-25T14:12:07.609Z,3.08
2022-10-25T14:15:00.181Z,3.08
2022-10-25T14:17:27.002Z,3.03
2022-10-25T14:19:58.819Z,2.72
2022-10-25T14:22:43.230Z,2.40
2022-10-25T14:25:24.013Z,3.13
2022-10-25T14:28:07.094Z,2.67
2022-10-25T14:30:43.318Z,2.55
2022-10-25T14:33:43.482Z,2.95
2022-10-25T14:36:47.687Z,2.70
2022-10-25T14:39:31.154Z,2.78
2022-10-25T14:42:01.188Z,2.58
2022-10-25T14:44:29.626Z,2.05
2022-10-25T14:46:58.228Z,2.35
2022-10-25T14:49:25.821Z,2.60
2022-10-25T14:51:57.282Z,2.10
2022-10-25T14:54:35.864Z,2.25
2022-10-25T14:57:08.340Z,1.90
2022-10-25T14:59:46.566Z,2.38
2022-10-25T15:02:13.307Z,2.47
2022-10-25T15:04:41.912Z,2.15
2022-10-25T15:07:33.105Z,2.63
2022-10-25T15:10:02.389Z,3.53
2022-10-25T15:12:35.081Z,3.08
2022-10-25T15:15:44.288Z,2.90
2022-10-25T15:18:23.214Z,3.53
2022-10-25T15:20:50.932Z,3.50
2022-10-25T15:23:23.750Z,3.72
2022-10-25T15:25:50.323Z,3.42
2022-10-25T15:28:20.647Z,3.75
2022-10-25T15:30:50.315Z,4.47
2022-10-25T15:33:20.553Z,3.80
2022-10-25T15:35:48.984Z,2.92
2022-10-25T15:38:17.798Z,3.70
2022-10-25T15:40:48.508Z,3.17
2022-10-25T15:43:15.759Z,3.50
2022-10-25T15:45:42.645Z,2.70
2022-10-25T15:48:19.061Z,3.17
2022-10-25T15:50:57.966Z,3.40
2022-10-25T15:53:25.905Z,12.13
2022-10-25T15:55:52.800Z,12.85
2022-10-25T15:58:19.421Z,7.10
2022-10-25T16:00:46.259Z,4.25
2022-10-25T16:03:20.598Z,3.35
2022-10-25T16:05:49.961Z,3.60
2022-10-25T16:08:16.640Z,4.10
2022-10-25T16:10:43.756Z,3.60
2022-10-25T16:13:33.058Z,3.67
2022-10-25T16:16:04.613Z,4.78
2022-10-25T16:18:38.629Z,4.00
2022-10-25T16:21:05.258Z,3.80
2022-10-25T16:23:31.931Z,3.63
2022-10-25T16:25:59.105Z,4.15
2022-10-25T16:30:57.318Z,4.20
2022-10-25T16:33:23.872Z,4.60
2022-10-25T16:35:50.569Z,3.80
2022-10-25T16:38:17.242Z,4.20
2022-10-25T16:40:43.826Z,4.53
2022-10-25T16:43:12.458Z,4.60
2022-10-25T16:45:39.061Z,3.67
2022-10-25T16:48:06.319Z,6.15
2022-10-25T16:50:33.918Z,9.63
2022-10-25T16:53:03.223Z,5.22
2022-10-25T16:55:31.092Z,4.35
2022-10-25T16:57:59.115Z,3.90
2022-10-25T17:00:27.134Z,4.00
2022-10-25T17:02:53.765Z,3.83
2022-10-25T17:05:23.491Z,4.15
2022-10-25T17:07:50.360Z,4.43
2022-10-25T17:10:19.119Z,4.50
2022-10-25T17:12:51.500Z,4.32
2022-10-25T17:15:19.446Z,5.72
2022-10-25T17:17:46.898Z,4.93
2022-10-25T17:20:16.384Z,4.90
2022-10-25T17:22:43.330Z,4.72
2022-10-25T17:25:10.993Z,3.97
2022-10-25T17:27:45.617Z,4.60
2022-10-25T17:30:12.917Z,3.92
2022-10-25T17:32:39.503Z,3.90
2022-10-25T17:35:06.462Z,4.22
2022-10-25T17:37:33.822Z,4.60
2022-10-25T17:40:00.626Z,3.50
2022-10-25T17:42:30.745Z,3.30
2022-10-25T17:44:58.766Z,2.95
2022-10-25T17:47:25.367Z,3.40
2022-10-25T17:49:54.334Z,3.28
2022-10-25T17:52:21.030Z,3.78
2022-10-25T17:54:47.822Z,3.63
2022-10-25T17:57:14.470Z,5.22
2022-10-25T17:59:41.124Z,4.00
2022-10-25T18:02:10.351Z,4.40
2022-10-25T18:04:53.215Z,3.55
2022-10-25T18:07:23.902Z,3.72
2022-10-25T18:09:50.609Z,4.55
2022-10-25T18:12:17.511Z,4.95
2022-10-25T18:14:44.120Z,4.55
2022-10-25T18:17:11.202Z,5.82
2022-10-25T18:19:37.868Z,4.85
2022-10-25T18:22:22.468Z,4.60
2022-10-25T18:24:49.220Z,4.68
2022-10-25T18:27:16.053Z,5.40
2022-10-25T18:29:43.454Z,5.18
2022-10-25T18:32:10.197Z,5.55
2022-10-25T18:34:36.758Z,5.65
2022-10-25T18:37:03.427Z,5.55
2022-10-25T18:39:29.991Z,5.45
2022-10-25T18:41:56.633Z,5.32
2022-10-25T18:44:23.785Z,4.90
2022-10-25T18:46:50.355Z,5.47
2022-10-25T18:49:17.027Z,5.50
2022-10-25T18:51:43.788Z,4.72
2022-10-25T18:54:13.928Z,5.72
2022-10-25T18:56:40.522Z,6.97
2022-10-25T18:59:07.272Z,6.57
2022-10-25T19:01:34.014Z,6.78
2022-10-25T19:04:02.556Z,6.47
2022-10-25T19:06:29.900Z,7.05
2022-10-25T19:08:56.794Z,7.15
2022-10-25T19:11:23.461Z,7.68
2022-10-25T19:13:54.776Z,7.97
2022-10-25T19:16:22.430Z,6.88
2022-10-25T19:18:49.120Z,7.78
2022-10-25T19:21:18.378Z,9.43
2022-10-25T19:23:46.507Z,8.88
2022-10-25T19:26:19.035Z,9.25
2022-10-25T19:28:45.860Z,8.80
2022-10-25T19:31:17.173Z,8.60
2022-10-25T19:33:51.116Z,9.38
2022-10-25T19:36:18.460Z,8.60
2022-10-25T19:38:45.653Z,10.02
2022-10-25T19:41:15.759Z,10.02
2022-10-25T19:43:42.823Z,9.70
2022-10-25T19:46:09.548Z,9.13
2022-10-25T19:48:36.199Z,10.48
2022-10-25T19:51:14.945Z,10.50
2022-10-25T19:53:41.629Z,10.13
2022-10-25T19:56:12.737Z,8.93
2022-10-25T19:58:40.128Z,9.32
2022-10-25T20:01:19.093Z,8.93
2022-10-25T20:03:49.414Z,9.05
2022-10-25T20:06:21.778Z,9.02
2022-10-25T20:08:51.114Z,9.88
2022-10-25T20:11:18.390Z,9.60
2022-10-25T20:13:45.424Z,9.02
2022-10-25T20:16:13.853Z,10.85
2022-10-25T20:18:42.016Z,10.52
2022-10-25T20:21:14.011Z,9.88
2022-10-25T20:23:43.142Z,10.18
2022-10-25T20:26:14.635Z,9.88
2022-10-25T20:28:42.514Z,10.93
2022-10-25T20:31:09.891Z,11.88
2022-10-25T20:33:37.594Z,11.25
2022-10-25T20:36:07.613Z,11.25
2022-10-25T20:38:35.540Z,10.80
2022-10-25T20:41:07.942Z,11.00
2022-10-25T20:43:34.812Z,10.68
2022-10-25T20:46:01.970Z,10.60
2022-10-25T20:48:28.973Z,9.13
2022-10-25T20:50:55.754Z,10.07
2022-10-25T20:53:22.915Z,9.93
2022-10-25T20:55:50.035Z,10.02
2022-10-25T20:58:18.561Z,8.65
2022-10-25T21:00:46.209Z,8.88
2022-10-25T21:03:13.854Z,11.00
2022-10-25T21:05:43.198Z,10.75
2022-10-25T21:08:10.729Z,10.07
2022-10-25T21:10:37.608Z,11.93
2022-10-25T21:13:04.283Z,12.57
2022-10-25T21:15:30.995Z,14.32
2022-10-25T21:17:57.685Z,15.07
2022-10-25T21:20:24.728Z,15.75
2022-10-25T21:22:51.331Z,16.65
2022-10-25T21:25:17.945Z,18.08
2022-10-25T21:27:44.538Z,17.00
2022-10-25T21:30:12.721Z,19.63
2022-10-25T21:32:39.290Z,18.52
2022-10-25T21:35:06.230Z,22.75
2022-10-25T21:37:32.818Z,23.95
2022-10-25T21:39:59.485Z,24.02
2022-10-25T21:42:26.045Z,23.25
2022-10-25T21:44:52.649Z,24.35
2022-10-25T21:47:19.235Z,24.95
2022-10-25T21:49:45.844Z,19.80
2022-10-25T21:52:12.447Z,19.35
2022-10-25T21:54:39.049Z,18.48
2022-10-25T21:57:05.650Z,17.38
2022-10-25T21:59:32.219Z,16.10
2022-10-25T22:01:59.445Z,14.90
2022-10-25T22:04:28.634Z,15.60
2022-10-25T22:06:56.466Z,12.73
2022-10-25T22:09:24.338Z,13.77
2022-10-25T22:11:52.404Z,13.88
2022-10-25T22:14:19.042Z,12.93
2022-10-25T22:16:47.016Z,13.35
2022-10-25T22:19:19.305Z,11.68
2022-10-25T22:21:49.595Z,12.57
2022-10-25T22:24:16.882Z,12.73
2022-10-25T22:26:46.077Z,12.63
2022-10-25T22:29:14.552Z,12.10
2022-10-25T22:31:41.489Z,13.73
2022-10-25T22:34:09.579Z,14.88
2022-10-25T22:36:40.067Z,15.57
2022-10-25T22:39:08.696Z,15.52
2022-10-25T22:41:37.145Z,16.00
2022-10-25T22:44:05.017Z,19.65
2022-10-25T22:46:34.814Z,18.48
2022-10-25T22:49:07.659Z,16.90
2022-10-25T22:51:36.863Z,18.70
2022-10-25T22:54:05.799Z,17.13
2022-10-25T22:56:34.411Z,17.25
2022-10-25T22:59:04.415Z,16.52
2022-10-25T23:01:38.868Z,17.67
2022-10-25T23:04:09.894Z,16.33
2022-10-25T23:06:39.872Z,14.27
2022-10-25T23:09:09.617Z,16.38
2022-10-25T23:11:39.739Z,14.43
2022-10-25T23:14:13.372Z,14.77
2022-10-25T23:16:45.367Z,17.85
2022-10-25T23:19:13.450Z,18.30
2022-10-25T23:21:41.445Z,17.23
2022-10-25T23:24:10.198Z,16.17
2022-10-25T23:26:38.270Z,13.95
2022-10-25T23:29:06.326Z,15.02
2022-10-25T23:31:34.381Z,13.18
2022-10-25T23:34:04.212Z,14.00
2022-10-25T23:36:37.866Z,15.50
2022-10-25T23:39:07.371Z,15.00
2022-10-25T23:41:35.424Z,15.48
2022-10-25T23:44:03.640Z,14.63
2022-10-25T23:46:30.220Z,14.40
2022-10-25T23:48:58.201Z,15.65
2022-10-25T23:51:26.139Z,14.48
2022-10-25T23:53:52.887Z,15.90
2022-10-25T23:56:19.494Z,13.80
2022-10-25T23:58:50.534Z,15.63
